createdAt,value
2019-03-29T00:02:03.379Z,5.17
2019-03-29T00:04:33.495Z,5.47
2019-03-29T00:07:04.038Z,5.20
2019-03-29T00:09:34.265Z,4.83
2019-03-29T00:12:04.923Z,5.27
2019-03-29T00:14:34.964Z,5.50
2019-03-29T00:17:04.840Z,5.57
2019-03-29T00:19:34.782Z,5.63
2019-03-29T00:22:05.116Z,5.50
2019-03-29T00:24:35.329Z,5.13
2019-03-29T00:27:05.250Z,5.60
2019-03-29T00:29:35.304Z,5.20
2019-03-29T00:32:06.062Z,5.27
2019-03-29T00:34:36.414Z,5.23
2019-03-29T00:37:06.338Z,5.50
2019-03-29T00:39:36.356Z,5.53
2019-03-29T00:42:06.716Z,5.73
2019-03-29T00:44:37.341Z,6.70
2019-03-29T00:47:07.222Z,6.17
2019-03-29T00:49:37.191Z,7.63
2019-03-29T00:52:07.014Z,7.60
2019-03-29T00:54:36.961Z,6.70
2019-03-29T00:57:06.888Z,6.03
2019-03-29T00:59:36.878Z,7.57
2019-03-29T01:02:06.855Z,6.40
2019-03-29T01:04:36.860Z,6.20
2019-03-29T01:07:07.867Z,5.20
2019-03-29T01:09:38.014Z,5.57
2019-03-29T01:12:07.930Z,5.60
2019-03-29T01:14:37.877Z,5.70
2019-03-29T01:17:07.790Z,5.37
2019-03-29T01:19:37.780Z,5.77
2019-03-29T01:22:07.798Z,5.17
2019-03-29T01:24:38.120Z,6.83
2019-03-29T01:27:08.310Z,5.40
2019-03-29T01:29:38.282Z,5.73
2019-03-29T01:32:08.163Z,6.23
2019-03-29T01:34:38.052Z,5.67
2019-03-29T01:37:07.939Z,5.50
2019-03-29T01:39:38.097Z,5.67
2019-03-29T01:42:08.113Z,6.00
2019-03-29T01:44:38.154Z,5.30
2019-03-29T01:47:08.179Z,5.53
2019-03-29T01:49:38.211Z,5.40
2019-03-29T01:52:08.360Z,5.87
2019-03-29T01:54:38.385Z,5.27
2019-03-29T01:57:08.362Z,5.53
2019-03-29T01:59:38.213Z,6.67
2019-03-29T02:02:08.207Z,5.90
2019-03-29T02:04:38.357Z,5.53
2019-03-29T02:07:08.220Z,6.03
2019-03-29T02:09:38.191Z,6.23
2019-03-29T02:12:08.090Z,5.30
2019-03-29T02:14:38.030Z,5.77
2019-03-29T02:17:07.885Z,6.37
2019-03-29T02:19:37.849Z,5.17
2019-03-29T02:22:09.025Z,5.30
2019-03-29T02:24:40.387Z,6.30
2019-03-29T02:27:10.489Z,4.97
2019-03-29T02:29:40.548Z,4.87
2019-03-29T02:32:10.462Z,4.80
2019-03-29T02:34:40.515Z,6.30
2019-03-29T02:37:10.624Z,5.37
2019-03-29T02:39:40.825Z,5.83
2019-03-29T02:42:10.768Z,6.10
2019-03-29T02:44:40.765Z,5.97
2019-03-29T02:47:10.720Z,5.57
2019-03-29T02:49:40.728Z,5.70
2019-03-29T02:52:10.619Z,5.90
2019-03-29T02:54:40.681Z,5.87
2019-03-29T02:57:10.491Z,5.70
2019-03-29T02:59:40.471Z,5.70
2019-03-29T03:02:10.464Z,5.57
2019-03-29T03:04:40.807Z,4.93
2019-03-29T03:07:10.868Z,4.50
2019-03-29T03:09:40.803Z,4.90
2019-03-29T03:12:10.696Z,5.27
2019-03-29T03:14:40.590Z,5.33
2019-03-29T03:17:10.489Z,5.03
2019-03-29T03:19:41.323Z,5.87
2019-03-29T03:22:11.344Z,5.37
2019-03-29T03:24:41.141Z,5.37
2019-03-29T03:27:10.966Z,5.87
2019-03-29T03:29:40.918Z,5.73
2019-03-29T03:32:10.856Z,6.43
2019-03-29T03:34:40.754Z,5.40
2019-03-29T03:37:10.587Z,6.00
2019-03-29T03:39:40.726Z,5.80
2019-03-29T03:42:10.634Z,6.00
2019-03-29T03:44:41.639Z,6.70
2019-03-29T03:47:11.490Z,6.73
2019-03-29T03:49:42.160Z,6.57
2019-03-29T03:52:12.114Z,6.30
2019-03-29T03:54:42.093Z,7.40
2019-03-29T03:57:11.944Z,6.70
2019-03-29T03:59:42.526Z,7.10
2019-03-29T04:02:12.313Z,7.07
2019-03-29T04:04:42.366Z,6.60
2019-03-29T04:07:12.253Z,7.43
2019-03-29T04:09:49.942Z,7.17
2019-03-29T04:12:13.824Z,7.30
2019-03-29T04:14:43.803Z,7.87
2019-03-29T04:17:13.774Z,8.03
2019-03-29T04:19:43.836Z,8.17
2019-03-29T04:22:13.797Z,7.60
2019-03-29T04:24:43.822Z,8.37
2019-03-29T04:27:13.754Z,7.80
2019-03-29T04:29:43.671Z,8.03
2019-03-29T04:32:13.856Z,8.10
2019-03-29T04:34:43.775Z,8.10
2019-03-29T04:37:13.645Z,8.67
2019-03-29T04:39:43.642Z,8.23
2019-03-29T04:42:13.592Z,8.20
2019-03-29T04:44:43.677Z,9.03
2019-03-29T04:47:13.874Z,8.77
2019-03-29T04:49:43.876Z,8.17
2019-03-29T04:52:13.983Z,7.80
2019-03-29T04:54:44.020Z,8.03
2019-03-29T04:57:14.119Z,8.87
2019-03-29T04:59:44.127Z,8.57
2019-03-29T05:02:14.214Z,8.83
2019-03-29T05:04:44.171Z,8.93
2019-03-29T05:07:14.165Z,9.00
2019-03-29T05:09:44.183Z,9.23
2019-03-29T05:12:14.078Z,8.30
2019-03-29T05:14:44.156Z,9.93
2019-03-29T05:17:14.177Z,10.17
2019-03-29T05:19:44.712Z,8.90
2019-03-29T05:22:14.865Z,8.97
2019-03-29T05:24:44.934Z,9.43
2019-03-29T05:27:14.894Z,10.20
2019-03-29T05:29:44.953Z,10.07
2019-03-29T05:32:14.818Z,9.33
2019-03-29T05:34:44.891Z,9.57
2019-03-29T05:37:14.834Z,8.67
2019-03-29T05:39:44.959Z,10.10
2019-03-29T05:42:14.930Z,10.23
2019-03-29T05:44:44.986Z,10.60
2019-03-29T05:47:14.824Z,10.63
2019-03-29T05:49:44.714Z,10.67
2019-03-29T05:52:14.773Z,10.33
2019-03-29T05:54:46.572Z,9.93
2019-03-29T05:57:16.477Z,9.73
2019-03-29T05:59:46.718Z,9.77
2019-03-29T06:02:16.571Z,9.80
2019-03-29T06:04:46.722Z,9.07
2019-03-29T06:07:16.598Z,10.27
2019-03-29T06:09:46.778Z,9.57
2019-03-29T06:12:16.597Z,10.70
2019-03-29T06:14:46.699Z,10.27
2019-03-29T06:17:16.793Z,9.70
2019-03-29T06:19:46.750Z,9.67
2019-03-29T06:22:16.701Z,9.60
2019-03-29T06:24:46.825Z,9.93
2019-03-29T06:27:16.750Z,9.80
2019-03-29T06:29:47.006Z,9.57
2019-03-29T06:32:16.938Z,9.97
2019-03-29T06:34:46.999Z,9.53
2019-03-29T06:37:17.219Z,10.23
2019-03-29T06:39:48.503Z,9.97
2019-03-29T06:42:18.489Z,10.07
2019-03-29T06:44:48.458Z,9.90
2019-03-29T06:47:18.366Z,9.80
2019-03-29T06:49:48.475Z,9.53
2019-03-29T06:52:18.346Z,10.03
2019-03-29T06:54:48.450Z,10.93
2019-03-29T06:57:18.376Z,9.80
2019-03-29T06:59:48.420Z,14.53
2019-03-29T07:02:18.326Z,13.57
2019-03-29T07:04:48.515Z,13.77
2019-03-29T07:07:18.441Z,13.27
2019-03-29T07:09:48.468Z,10.43
2019-03-29T07:12:18.444Z,12.30
2019-03-29T07:14:48.314Z,11.63
2019-03-29T07:17:18.191Z,12.03
2019-03-29T07:19:48.050Z,11.47
2019-03-29T07:22:17.860Z,10.63
2019-03-29T07:24:47.811Z,10.67
2019-03-29T07:27:17.606Z,10.63
2019-03-29T07:29:47.463Z,10.13
2019-03-29T07:32:17.359Z,10.90
2019-03-29T07:34:49.130Z,10.10
2019-03-29T07:37:18.770Z,9.83
2019-03-29T07:39:48.615Z,10.50
2019-03-29T07:42:19.642Z,9.53
2019-03-29T07:44:49.857Z,10.37
2019-03-29T07:47:19.757Z,9.47
2019-03-29T07:49:49.755Z,10.03
2019-03-29T07:52:19.670Z,9.83
2019-03-29T07:54:49.783Z,9.40
2019-03-29T07:57:20.224Z,9.67
2019-03-29T07:59:50.611Z,10.70
2019-03-29T08:02:20.633Z,10.40
2019-03-29T08:04:51.266Z,9.93
2019-03-29T08:07:27.010Z,9.23
2019-03-29T08:09:54.091Z,8.57
2019-03-29T08:12:23.983Z,8.63
2019-03-29T08:14:53.972Z,8.83
2019-03-29T08:17:23.980Z,10.53
2019-03-29T08:20:24.550Z,9.07
2019-03-29T08:22:25.550Z,9.03
2019-03-29T08:24:58.981Z,8.97
2019-03-29T08:27:27.144Z,9.90
2019-03-29T08:29:57.002Z,9.57
2019-03-29T08:32:26.817Z,8.60
2019-03-29T08:34:56.667Z,8.13
2019-03-29T08:37:26.633Z,8.07
2019-03-29T08:39:56.781Z,8.87
2019-03-29T08:42:26.699Z,8.10
2019-03-29T08:44:56.610Z,8.10
2019-03-29T08:47:26.499Z,9.07
2019-03-29T08:49:56.376Z,8.53
2019-03-29T08:52:26.208Z,8.07
2019-03-29T08:54:56.126Z,8.20
2019-03-29T08:57:26.307Z,8.13
2019-03-29T08:59:56.534Z,7.60
2019-03-29T09:02:26.483Z,7.23
2019-03-29T09:04:56.270Z,7.63
2019-03-29T09:07:28.071Z,7.37
2019-03-29T09:09:58.057Z,7.00
2019-03-29T09:12:28.098Z,7.23
2019-03-29T09:14:57.977Z,6.70
2019-03-29T09:17:28.042Z,7.70
2019-03-29T09:19:57.847Z,6.87
2019-03-29T09:22:27.960Z,5.47
2019-03-29T09:24:57.970Z,5.23
2019-03-29T09:27:27.973Z,5.27
2019-03-29T09:29:57.801Z,5.73
2019-03-29T09:32:28.132Z,5.13
2019-03-29T09:34:58.181Z,5.43
2019-03-29T09:37:28.200Z,5.40
2019-03-29T09:39:58.090Z,5.53
2019-03-29T09:42:29.855Z,5.10
2019-03-29T09:44:59.678Z,4.80
2019-03-29T09:47:36.798Z,5.10
2019-03-29T09:50:01.323Z,5.30
2019-03-29T09:52:31.383Z,5.23
2019-03-29T09:55:01.263Z,4.60
2019-03-29T09:57:37.135Z,4.50
2019-03-29T10:00:02.701Z,4.50
2019-03-29T10:02:32.738Z,4.83
2019-03-29T10:05:02.699Z,5.07
2019-03-29T10:07:32.670Z,4.77
2019-03-29T10:10:02.713Z,4.40
2019-03-29T10:12:43.159Z,4.57
2019-03-29T10:15:04.307Z,4.17
2019-03-29T10:17:34.277Z,4.67
2019-03-29T10:20:04.481Z,4.93
2019-03-29T10:22:34.578Z,4.90
2019-03-29T10:25:18.291Z,4.30
2019-03-29T10:27:36.192Z,5.30
2019-03-29T10:30:06.563Z,4.90
2019-03-29T10:32:36.670Z,5.23
2019-03-29T10:35:06.779Z,5.23
2019-03-29T10:37:36.899Z,7.77
2019-03-29T10:40:06.889Z,13.90
2019-03-29T10:42:39.746Z,25.83
2019-03-29T10:45:09.356Z,26.53
2019-03-29T10:47:43.578Z,36.13
2019-03-29T10:50:11.034Z,30.07
2019-03-29T10:52:41.051Z,39.07
2019-03-29T10:55:10.948Z,12.67
2019-03-29T10:57:40.951Z,8.00
2019-03-29T11:00:16.879Z,5.60
2019-03-29T11:02:46.954Z,5.73
2019-03-29T11:05:16.958Z,4.10
2019-03-29T11:07:47.118Z,5.33
2019-03-29T11:10:23.594Z,5.07
2019-03-29T11:12:53.847Z,3.10
2019-03-29T11:15:23.852Z,3.30
2019-03-29T11:17:54.096Z,2.60
2019-03-29T11:20:23.935Z,2.60
2019-03-29T11:22:54.383Z,2.90
2019-03-29T11:25:24.348Z,3.37
2019-03-29T11:27:54.256Z,2.83
2019-03-29T11:30:24.105Z,3.10
2019-03-29T11:32:53.949Z,2.80
2019-03-29T11:35:23.873Z,3.23
2019-03-29T11:37:54.953Z,3.07
2019-03-29T11:40:24.885Z,3.30
2019-03-29T11:42:54.971Z,3.00
2019-03-29T11:45:24.886Z,3.17
2019-03-29T11:48:07.340Z,3.10
2019-03-29T11:50:29.047Z,2.57
2019-03-29T11:52:58.170Z,2.50
2019-03-29T11:55:28.143Z,2.70
2019-03-29T11:57:58.262Z,2.80
2019-03-29T12:00:38.014Z,2.87
2019-03-29T12:03:09.418Z,2.90
2019-03-29T12:05:39.592Z,2.53
2019-03-29T12:08:09.525Z,2.90
2019-03-29T12:10:39.317Z,2.90
2019-03-29T12:13:09.759Z,2.80
2019-03-29T12:15:39.847Z,3.00
2019-03-29T12:18:09.766Z,3.00
2019-03-29T12:20:39.651Z,2.80
2019-03-29T12:23:09.514Z,2.73
2019-03-29T12:25:39.509Z,2.80
2019-03-29T12:28:09.463Z,2.90
2019-03-29T12:30:39.545Z,2.90
2019-03-29T12:33:09.498Z,3.93
2019-03-29T12:35:39.374Z,3.47
2019-03-29T12:38:09.322Z,3.00
2019-03-29T12:40:39.271Z,3.10
2019-03-29T12:43:12.383Z,3.30
2019-03-29T12:45:40.814Z,3.03
2019-03-29T12:48:10.645Z,3.50
2019-03-29T12:50:40.504Z,3.20
2019-03-29T12:53:10.452Z,2.90
2019-03-29T12:55:40.391Z,3.10
2019-03-29T12:58:10.299Z,3.10
2019-03-29T13:00:40.282Z,4.60
2019-03-29T13:03:10.209Z,3.50
2019-03-29T13:05:40.262Z,3.20
2019-03-29T13:08:10.262Z,3.00
2019-03-29T13:10:42.476Z,3.23
2019-03-29T13:13:11.992Z,3.17
2019-03-29T13:15:41.935Z,3.60
2019-03-29T13:18:11.959Z,3.13
2019-03-29T13:20:41.891Z,2.80
2019-03-29T13:23:11.871Z,3.80
2019-03-29T13:25:41.934Z,3.27
2019-03-29T13:28:11.859Z,3.87
2019-03-29T13:30:41.728Z,3.50
2019-03-29T13:33:11.629Z,3.57
2019-03-29T13:35:44.416Z,3.50
2019-03-29T13:38:13.122Z,3.33
2019-03-29T13:40:42.977Z,3.20
2019-03-29T13:43:12.834Z,3.50
2019-03-29T13:45:42.687Z,3.40
2019-03-29T13:48:12.653Z,3.53
2019-03-29T13:50:42.543Z,3.40
2019-03-29T13:53:12.521Z,3.53
2019-03-29T13:55:42.290Z,3.70
2019-03-29T13:58:12.226Z,3.50
2019-03-29T14:00:42.090Z,3.33
2019-03-29T14:03:11.962Z,3.43
2019-03-29T14:05:41.807Z,3.73
2019-03-29T14:08:11.679Z,3.80
2019-03-29T14:10:41.490Z,3.53
2019-03-29T14:13:11.475Z,3.37
2019-03-29T14:15:41.259Z,3.60
2019-03-29T14:18:11.158Z,4.03
2019-03-29T14:20:41.147Z,4.27
2019-03-29T14:23:13.718Z,4.27
2019-03-29T14:25:43.547Z,4.27
2019-03-29T14:28:13.446Z,4.50
2019-03-29T14:30:43.328Z,4.20
2019-03-29T14:33:13.386Z,4.50
2019-03-29T14:35:43.322Z,5.00
2019-03-29T14:38:14.630Z,4.40
2019-03-29T14:40:44.585Z,4.50
2019-03-29T14:43:14.663Z,4.60
2019-03-29T14:45:44.664Z,15.07
2019-03-29T14:48:14.686Z,18.20
2019-03-29T14:50:44.581Z,14.67
2019-03-29T14:53:14.570Z,24.23
2019-03-29T14:55:44.639Z,27.90
2019-03-29T14:58:14.674Z,15.70
2019-03-29T15:00:48.259Z,25.83
2019-03-29T15:03:16.543Z,15.93
2019-03-29T15:05:46.566Z,16.83
2019-03-29T15:08:16.670Z,9.30
2019-03-29T15:10:46.591Z,11.93
2019-03-29T15:13:16.531Z,16.87
2019-03-29T15:15:46.411Z,27.57
2019-03-29T15:18:16.310Z,22.77
2019-03-29T15:20:53.417Z,22.27
2019-03-29T15:23:18.090Z,32.90
2019-03-29T15:25:48.027Z,22.53
2019-03-29T15:28:18.154Z,17.27
2019-03-29T15:30:48.063Z,11.10
2019-03-29T15:33:19.093Z,7.03
2019-03-29T15:35:49.033Z,11.40
2019-03-29T15:38:19.734Z,14.67
2019-03-29T15:40:49.722Z,8.50
2019-03-29T15:43:19.867Z,27.27
2019-03-29T15:45:49.741Z,50.87
2019-03-29T15:48:20.782Z,36.10
2019-03-29T15:50:50.602Z,26.17
2019-03-29T15:53:20.858Z,46.43
2019-03-29T15:55:50.900Z,47.13
2019-03-29T15:58:21.031Z,28.43
2019-03-29T16:00:50.954Z,25.70
2019-03-29T16:03:20.930Z,22.80
2019-03-29T16:05:50.864Z,35.57
2019-03-29T16:08:23.746Z,45.00
2019-03-29T16:10:53.633Z,10.93
2019-03-29T16:13:23.667Z,23.67
2019-03-29T16:15:53.635Z,36.37
2019-03-29T16:18:23.661Z,13.03
2019-03-29T16:20:53.734Z,14.83
2019-03-29T16:23:23.826Z,20.67
2019-03-29T16:25:53.766Z,24.37
2019-03-29T16:28:23.782Z,17.60
2019-03-29T16:30:53.908Z,19.57
2019-03-29T16:33:23.921Z,15.47
2019-03-29T16:35:53.871Z,12.67
2019-03-29T16:38:26.944Z,18.50
2019-03-29T16:40:56.862Z,12.37
2019-03-29T16:43:26.862Z,6.90
2019-03-29T16:45:56.767Z,11.80
2019-03-29T16:48:26.864Z,11.77
2019-03-29T16:50:57.151Z,11.40
2019-03-29T16:53:27.182Z,11.37
2019-03-29T16:55:57.116Z,9.30
2019-03-29T16:58:27.206Z,12.33
2019-03-29T17:00:57.309Z,11.83
2019-03-29T17:03:27.279Z,10.47
2019-03-29T17:05:57.150Z,6.60
2019-03-29T17:08:30.239Z,11.48
2019-03-29T17:11:00.208Z,9.40
2019-03-29T17:13:30.310Z,5.97
2019-03-29T17:16:02.146Z,6.00
2019-03-29T17:18:31.954Z,27.40
2019-03-29T17:21:02.004Z,43.77
2019-03-29T17:23:32.299Z,27.57
2019-03-29T17:26:02.219Z,23.50
2019-03-29T17:28:32.324Z,40.80
2019-03-29T17:31:04.245Z,10.50
2019-03-29T17:33:34.267Z,50.47
2019-03-29T17:36:04.230Z,96.37
2019-03-29T17:38:34.278Z,69.43
2019-03-29T17:41:04.174Z,67.70
2019-03-29T17:43:34.190Z,87.27
2019-03-29T17:46:15.654Z,26.63
2019-03-29T17:48:37.413Z,7.47
2019-03-29T17:51:07.435Z,7.13
2019-03-29T17:53:37.624Z,7.40
2019-03-29T17:56:07.512Z,7.13
2019-03-29T17:58:37.475Z,8.20
2019-03-29T18:01:07.512Z,7.43
2019-03-29T18:03:37.536Z,7.00
2019-03-29T18:06:07.381Z,8.03
2019-03-29T18:08:37.457Z,8.30
2019-03-29T18:11:07.524Z,10.40
2019-03-29T18:13:37.598Z,9.60
2019-03-29T18:16:07.687Z,8.17
2019-03-29T18:18:37.589Z,6.40
2019-03-29T18:21:07.637Z,7.57
2019-03-29T18:23:37.867Z,9.23
2019-03-29T18:26:07.981Z,8.67
2019-03-29T18:28:38.215Z,6.53
2019-03-29T18:31:08.312Z,8.27
2019-03-29T18:33:39.447Z,8.33
2019-03-29T18:36:10.637Z,7.43
2019-03-29T18:38:40.987Z,9.07
2019-03-29T18:41:10.938Z,9.03
2019-03-29T18:43:40.819Z,10.97
2019-03-29T18:46:10.871Z,10.07
2019-03-29T18:48:40.724Z,11.43
2019-03-29T18:51:10.820Z,8.60
2019-03-29T18:53:40.792Z,9.63
2019-03-29T18:56:10.950Z,10.27
2019-03-29T18:58:40.840Z,9.87
2019-03-29T19:01:10.874Z,7.60
2019-03-29T19:03:41.794Z,6.80
2019-03-29T19:06:11.923Z,8.10
2019-03-29T19:08:41.925Z,7.70
2019-03-29T19:11:11.953Z,8.17
2019-03-29T19:13:41.807Z,7.07
2019-03-29T19:16:11.998Z,9.77
2019-03-29T19:18:41.943Z,7.23
2019-03-29T19:21:12.106Z,7.97
2019-03-29T19:23:42.077Z,8.17
2019-03-29T19:26:12.058Z,7.27
2019-03-29T19:28:41.941Z,7.00
2019-03-29T19:31:12.158Z,7.00
2019-03-29T19:33:42.126Z,6.67
2019-03-29T19:36:13.413Z,6.77
2019-03-29T19:38:43.361Z,7.47
2019-03-29T19:41:13.413Z,8.10
2019-03-29T19:43:43.276Z,6.90
2019-03-29T19:46:13.364Z,12.00
2019-03-29T19:48:43.302Z,9.70
2019-03-29T19:51:13.343Z,11.60
2019-03-29T19:53:43.285Z,8.47
2019-03-29T19:56:13.425Z,9.90
2019-03-29T19:58:43.383Z,10.40
2019-03-29T20:01:13.606Z,7.27
2019-03-29T20:03:43.495Z,9.60
2019-03-29T20:06:13.646Z,9.13
2019-03-29T20:08:43.590Z,10.33
2019-03-29T20:11:13.822Z,7.27
2019-03-29T20:13:43.696Z,7.80
2019-03-29T20:16:17.903Z,9.60
2019-03-29T20:18:47.924Z,8.27
2019-03-29T20:21:17.962Z,9.30
2019-03-29T20:23:47.862Z,9.20
2019-03-29T20:26:17.886Z,11.30
2019-03-29T20:28:47.825Z,9.43
2019-03-29T20:31:17.895Z,8.57
2019-03-29T20:33:47.889Z,9.50
2019-03-29T20:36:22.729Z,8.50
2019-03-29T20:38:49.633Z,8.37
2019-03-29T20:41:21.268Z,9.77
2019-03-29T20:43:51.163Z,11.33
2019-03-29T20:46:21.264Z,8.17
2019-03-29T20:48:51.228Z,8.17
2019-03-29T20:51:21.368Z,13.50
2019-03-29T20:53:51.424Z,13.00
2019-03-29T20:56:21.581Z,10.20
2019-03-29T20:58:51.456Z,7.83
2019-03-29T21:01:21.529Z,9.37
2019-03-29T21:03:51.464Z,9.10
2019-03-29T21:06:21.550Z,13.30
2019-03-29T21:08:51.590Z,11.70
2019-03-29T21:11:21.689Z,10.67
2019-03-29T21:13:51.577Z,8.43
2019-03-29T21:16:23.585Z,7.30
2019-03-29T21:18:53.523Z,8.53
2019-03-29T21:21:26.423Z,8.13
2019-03-29T21:23:58.440Z,8.97
2019-03-29T21:26:28.391Z,8.60
2019-03-29T21:29:00.536Z,7.83
2019-03-29T21:31:29.825Z,9.73
2019-03-29T21:33:59.658Z,8.13
2019-03-29T21:36:29.723Z,8.43
2019-03-29T21:38:59.612Z,8.33
2019-03-29T21:41:29.568Z,8.63
2019-03-29T21:43:59.429Z,9.60
2019-03-29T21:46:29.310Z,9.77
2019-03-29T21:48:59.226Z,8.90
2019-03-29T21:51:29.074Z,8.87
2019-03-29T21:53:58.911Z,10.00
2019-03-29T21:56:28.882Z,8.83
2019-03-29T21:58:59.208Z,8.00
2019-03-29T22:01:29.409Z,7.70
2019-03-29T22:03:59.245Z,7.80
2019-03-29T22:06:29.298Z,8.40
2019-03-29T22:08:59.281Z,7.83
2019-03-29T22:11:29.320Z,8.10
2019-03-29T22:13:59.383Z,8.27
2019-03-29T22:16:29.469Z,8.50
2019-03-29T22:19:01.371Z,8.17
2019-03-29T22:21:31.344Z,8.13
2019-03-29T22:24:01.440Z,7.73
2019-03-29T22:26:33.348Z,7.80
2019-03-29T22:29:03.591Z,7.67
2019-03-29T22:31:33.402Z,8.20
2019-03-29T22:34:05.061Z,8.63
2019-03-29T22:36:37.342Z,8.67
2019-03-29T22:39:07.733Z,8.20
2019-03-29T22:41:37.652Z,9.33
2019-03-29T22:44:07.586Z,9.13
2019-03-29T22:46:37.849Z,8.67
2019-03-29T22:49:08.014Z,8.47
2019-03-29T22:51:37.974Z,9.27
2019-03-29T22:54:08.342Z,8.83
2019-03-29T22:56:38.357Z,8.73
2019-03-29T22:59:08.349Z,10.27
2019-03-29T23:01:40.732Z,9.60
2019-03-29T23:04:10.758Z,10.27
2019-03-29T23:06:40.788Z,10.57
2019-03-29T23:09:11.991Z,12.37
2019-03-29T23:11:42.256Z,10.07
2019-03-29T23:14:12.514Z,10.47
2019-03-29T23:16:42.446Z,9.87
2019-03-29T23:19:12.542Z,10.07
2019-03-29T23:21:42.947Z,10.03
2019-03-29T23:24:15.894Z,9.80
2019-03-29T23:26:46.010Z,10.07
2019-03-29T23:29:16.031Z,10.63
2019-03-29T23:31:46.053Z,10.43
2019-03-29T23:34:16.008Z,11.33
2019-03-29T23:36:45.901Z,10.53
2019-03-29T23:39:16.007Z,10.37
2019-03-29T23:41:45.994Z,10.70
2019-03-29T23:44:16.031Z,10.57
2019-03-29T23:46:45.939Z,12.13
2019-03-29T23:49:21.178Z,12.90
2019-03-29T23:51:47.575Z,11.67
2019-03-29T23:54:18.542Z,11.60
2019-03-29T23:56:48.462Z,16.10
2019-03-29T23:59:18.590Z,12.43
